Miami, Florida
Traffic Map
Current Weather Conditions
Miami, Florida
Few Clouds
Few Clouds
14°
Feels Like: 14°
Wind Chill: 14° Ceiling: Unl
Heat Index: 14° Visibility: 10mi
Dew Point: Wind: 3mph
Humidity: 62% Direction: 340° (NNW)
Pressure: 30.3in Gusts: 0mph
Raw Report DataKMIA 121153Z 34003KT 10SM FEW020 14/07 A3030 RMK AO2 SLP260 T01390067 10144 20128 53018
Traffic Incident Summary
Active as of:
Severity:
Category:
InformationThere was an issue retrieving the traffic information for this location. Please try a different location or try again shortly.
Advertisements
Track Severe Weather on mobile